sensor_id;sensor_type;location;lat;lon;timestamp;pressure;altitude;pressure_sealevel;temperature;humidity
79690;BME280;69156;55.932;-3.238;2023-05-24T00:02:18;101856.14;;;11.77;63.71
79690;BME280;69156;55.932;-3.238;2023-05-24T00:04:44;101851.83;;;11.88;63.57
79690;BME280;69156;55.932;-3.238;2023-05-24T00:07:09;101852.24;;;11.85;63.57
79690;BME280;69156;55.932;-3.238;2023-05-24T00:09:35;101856.17;;;11.76;63.56
79690;BME280;69156;55.932;-3.238;2023-05-24T00:12:02;101851.44;;;11.78;63.70
79690;BME280;69156;55.932;-3.238;2023-05-24T00:14:27;101847.19;;;11.74;63.97
79690;BME280;69156;55.932;-3.238;2023-05-24T00:16:52;101844.00;;;11.67;64.23
79690;BME280;69156;55.932;-3.238;2023-05-24T00:19:19;101835.46;;;11.59;64.47
79690;BME280;69156;55.932;-3.238;2023-05-24T00:21:44;101834.09;;;11.59;64.60
79690;BME280;69156;55.932;-3.238;2023-05-24T00:24:09;101831.19;;;11.60;64.56
79690;BME280;69156;55.932;-3.238;2023-05-24T00:26:35;101829.84;;;11.62;64.37
79690;BME280;69156;55.932;-3.238;2023-05-24T00:29:00;101830.63;;;11.62;64.21
79690;BME280;69156;55.932;-3.238;2023-05-24T00:31:26;101834.28;;;11.56;64.05
79690;BME280;69156;55.932;-3.238;2023-05-24T00:33:52;101838.49;;;11.66;63.87
79690;BME280;69156;55.932;-3.238;2023-05-24T00:36:18;101839.74;;;11.57;63.80
79690;BME280;69156;55.932;-3.238;2023-05-24T00:38:44;101837.52;;;11.58;63.97
79690;BME280;69156;55.932;-3.238;2023-05-24T00:41:09;101836.54;;;11.67;64.12
79690;BME280;69156;55.932;-3.238;2023-05-24T00:43:35;101827.38;;;11.60;64.16
79690;BME280;69156;55.932;-3.238;2023-05-24T00:46:15;101825.89;;;11.66;63.80
79690;BME280;69156;55.932;-3.238;2023-05-24T00:48:26;101821.65;;;11.37;64.04
79690;BME280;69156;55.932;-3.238;2023-05-24T00:50:51;101817.88;;;11.45;64.09
79690;BME280;69156;55.932;-3.238;2023-05-24T00:53:16;101819.79;;;11.60;63.32
79690;BME280;69156;55.932;-3.238;2023-05-24T00:55:42;101815.49;;;11.49;63.55
79690;BME280;69156;55.932;-3.238;2023-05-24T00:58:08;101815.36;;;11.50;63.70
79690;BME280;69156;55.932;-3.238;2023-05-24T01:00:33;101815.89;;;11.43;63.99
79690;BME280;69156;55.932;-3.238;2023-05-24T01:02:58;101824.99;;;11.32;64.02
79690;BME280;69156;55.932;-3.238;2023-05-24T01:05:24;101831.36;;;11.40;64.10
79690;BME280;69156;55.932;-3.238;2023-05-24T01:08:01;101830.55;;;11.20;64.45
79690;BME280;69156;55.932;-3.238;2023-05-24T01:10:25;101828.97;;;11.32;64.11
79690;BME280;69156;55.932;-3.238;2023-05-24T01:12:52;101826.74;;;11.36;63.79
79690;BME280;69156;55.932;-3.238;2023-05-24T01:15:12;101821.36;;;11.38;63.59
79690;BME280;69156;55.932;-3.238;2023-05-24T01:17:38;101822.63;;;11.40;63.51
79690;BME280;69156;55.932;-3.238;2023-05-24T01:20:02;101809.13;;;11.34;63.66
79690;BME280;69156;55.932;-3.238;2023-05-24T01:22:37;101809.12;;;11.23;64.33
79690;BME280;69156;55.932;-3.238;2023-05-24T01:24:58;101807.69;;;11.17;64.60
79690;BME280;69156;55.932;-3.238;2023-05-24T01:27:16;101804.26;;;11.25;64.42
79690;BME280;69156;55.932;-3.238;2023-05-24T01:29:41;101798.02;;;11.05;65.02
79690;BME280;69156;55.932;-3.238;2023-05-24T01:32:06;101799.09;;;11.06;64.97
79690;BME280;69156;55.932;-3.238;2023-05-24T01:34:31;101797.03;;;11.13;64.77
79690;BME280;69156;55.932;-3.238;2023-05-24T01:36:57;101791.23;;;11.08;64.87
79690;BME280;69156;55.932;-3.238;2023-05-24T01:39:25;101791.35;;;11.21;64.53
79690;BME280;69156;55.932;-3.238;2023-05-24T01:41:53;101787.22;;;11.00;64.76
79690;BME280;69156;55.932;-3.238;2023-05-24T01:44:18;101777.35;;;11.11;64.71
79690;BME280;69156;55.932;-3.238;2023-05-24T01:46:38;101778.39;;;11.08;64.86
79690;BME280;69156;55.932;-3.238;2023-05-24T01:49:15;101782.75;;;11.05;65.00
79690;BME280;69156;55.932;-3.238;2023-05-24T01:51:33;101778.95;;;11.02;64.82
79690;BME280;69156;55.932;-3.238;2023-05-24T01:53:57;101777.78;;;10.95;65.37
79690;BME280;69156;55.932;-3.238;2023-05-24T01:56:20;101760.96;;;10.90;65.51
79690;BME280;69156;55.932;-3.238;2023-05-24T01:58:46;101764.00;;;10.84;65.48
79690;BME280;69156;55.932;-3.238;2023-05-24T02:01:11;101769.07;;;10.77;65.85
79690;BME280;69156;55.932;-3.238;2023-05-24T02:03:35;101766.74;;;10.69;66.10
79690;BME280;69156;55.932;-3.238;2023-05-24T02:06:01;101771.13;;;10.63;66.34
79690;BME280;69156;55.932;-3.238;2023-05-24T02:08:26;101770.38;;;10.82;66.21
79690;BME280;69156;55.932;-3.238;2023-05-24T02:10:51;101764.87;;;10.59;66.47
79690;BME280;69156;55.932;-3.238;2023-05-24T02:13:17;101760.20;;;10.63;66.19
79690;BME280;69156;55.932;-3.238;2023-05-24T02:15:42;101755.10;;;10.65;66.04
79690;BME280;69156;55.932;-3.238;2023-05-24T02:18:08;101758.08;;;10.64;66.03
79690;BME280;69156;55.932;-3.238;2023-05-24T02:20:34;101756.38;;;10.58;66.05
79690;BME280;69156;55.932;-3.238;2023-05-24T02:22:59;101769.77;;;10.67;65.74
79690;BME280;69156;55.932;-3.238;2023-05-24T02:25:25;101767.83;;;10.71;65.53
79690;BME280;69156;55.932;-3.238;2023-05-24T02:27:50;101772.32;;;10.63;65.68
79690;BME280;69156;55.932;-3.238;2023-05-24T02:30:16;101761.16;;;10.62;65.74
79690;BME280;69156;55.932;-3.238;2023-05-24T02:32:42;101763.88;;;10.69;65.77
79690;BME280;69156;55.932;-3.238;2023-05-24T02:35:08;101774.75;;;10.72;65.75
79690;BME280;69156;55.932;-3.238;2023-05-24T02:37:33;101779.36;;;10.75;65.20
79690;BME280;69156;55.932;-3.238;2023-05-24T02:39:59;101787.77;;;10.71;65.29
79690;BME280;69156;55.932;-3.238;2023-05-24T02:42:25;101791.55;;;10.72;65.37
79690;BME280;69156;55.932;-3.238;2023-05-24T02:44:50;101789.22;;;10.75;65.22
79690;BME280;69156;55.932;-3.238;2023-05-24T02:47:15;101793.85;;;10.67;65.23
79690;BME280;69156;55.932;-3.238;2023-05-24T02:49:41;101798.41;;;10.71;65.32
79690;BME280;69156;55.932;-3.238;2023-05-24T02:52:07;101796.66;;;10.71;65.36
79690;BME280;69156;55.932;-3.238;2023-05-24T02:54:32;101790.99;;;10.57;65.49
79690;BME280;69156;55.932;-3.238;2023-05-24T02:56:58;101789.65;;;10.75;65.21
79690;BME280;69156;55.932;-3.238;2023-05-24T02:59:24;101783.85;;;10.76;65.12
79690;BME280;69156;55.932;-3.238;2023-05-24T03:01:50;101782.11;;;10.75;64.55
79690;BME280;69156;55.932;-3.238;2023-05-24T03:04:15;101773.96;;;10.63;64.83
79690;BME280;69156;55.932;-3.238;2023-05-24T03:06:40;101783.01;;;10.61;64.75
79690;BME280;69156;55.932;-3.238;2023-05-24T03:09:06;101786.76;;;10.66;64.70
79690;BME280;69156;55.932;-3.238;2023-05-24T03:11:32;101780.53;;;10.53;64.83
79690;BME280;69156;55.932;-3.238;2023-05-24T03:13:57;101787.59;;;10.58;64.67
79690;BME280;69156;55.932;-3.238;2023-05-24T03:16:22;101780.20;;;10.50;65.00
79690;BME280;69156;55.932;-3.238;2023-05-24T03:18:48;101777.70;;;10.49;65.23
79690;BME280;69156;55.932;-3.238;2023-05-24T03:21:14;101774.84;;;10.56;65.50
79690;BME280;69156;55.932;-3.238;2023-05-24T03:23:39;101776.08;;;10.61;65.39
79690;BME280;69156;55.932;-3.238;2023-05-24T03:26:04;101772.54;;;10.42;65.47
79690;BME280;69156;55.932;-3.238;2023-05-24T03:28:30;101762.46;;;10.39;65.52
79690;BME280;69156;55.932;-3.238;2023-05-24T03:30:55;101760.04;;;10.40;65.52
79690;BME280;69156;55.932;-3.238;2023-05-24T03:33:21;101759.75;;;10.36;65.79
79690;BME280;69156;55.932;-3.238;2023-05-24T03:35:47;101763.00;;;10.25;65.97
79690;BME280;69156;55.932;-3.238;2023-05-24T03:38:13;101750.66;;;10.34;65.98
79690;BME280;69156;55.932;-3.238;2023-05-24T03:40:39;101749.61;;;10.28;65.91
79690;BME280;69156;55.932;-3.238;2023-05-24T03:43:04;101755.83;;;10.45;66.10
79690;BME280;69156;55.932;-3.238;2023-05-24T03:45:30;101748.91;;;10.25;66.13
79690;BME280;69156;55.932;-3.238;2023-05-24T03:47:56;101754.75;;;10.26;66.12
79690;BME280;69156;55.932;-3.238;2023-05-24T03:50:21;101760.83;;;10.24;66.13
79690;BME280;69156;55.932;-3.238;2023-05-24T03:52:47;101760.37;;;10.30;65.94
79690;BME280;69156;55.932;-3.238;2023-05-24T03:55:13;101767.27;;;10.47;65.94
79690;BME280;69156;55.932;-3.238;2023-05-24T03:57:38;101775.59;;;10.38;65.75
79690;BME280;69156;55.932;-3.238;2023-05-24T04:00:05;101775.33;;;10.53;65.94
79690;BME280;69156;55.932;-3.238;2023-05-24T04:02:29;101779.19;;;10.35;65.91
79690;BME280;69156;55.932;-3.238;2023-05-24T04:04:55;101774.53;;;10.46;65.70
79690;BME280;69156;55.932;-3.238;2023-05-24T04:07:22;101778.98;;;10.50;65.64
79690;BME280;69156;55.932;-3.238;2023-05-24T04:09:47;101776.15;;;10.40;65.71
79690;BME280;69156;55.932;-3.238;2023-05-24T04:12:14;101775.30;;;10.33;65.90
79690;BME280;69156;55.932;-3.238;2023-05-24T04:14:39;101775.36;;;10.53;65.83
79690;BME280;69156;55.932;-3.238;2023-05-24T04:17:04;101772.99;;;10.55;65.87
79690;BME280;69156;55.932;-3.238;2023-05-24T04:19:30;101778.70;;;10.40;65.71
79690;BME280;69156;55.932;-3.238;2023-05-24T04:21:56;101784.73;;;10.45;65.56
79690;BME280;69156;55.932;-3.238;2023-05-24T04:24:22;101786.45;;;10.41;65.67
79690;BME280;69156;55.932;-3.238;2023-05-24T04:26:47;101788.04;;;10.39;65.71
79690;BME280;69156;55.932;-3.238;2023-05-24T04:29:13;101784.33;;;10.50;65.67
79690;BME280;69156;55.932;-3.238;2023-05-24T04:31:39;101793.08;;;10.40;65.69
79690;BME280;69156;55.932;-3.238;2023-05-24T04:34:04;101795.38;;;10.37;65.77
79690;BME280;69156;55.932;-3.238;2023-05-24T04:36:29;101799.91;;;10.58;65.79
79690;BME280;69156;55.932;-3.238;2023-05-24T04:38:54;101801.04;;;10.53;65.49
79690;BME280;69156;55.932;-3.238;2023-05-24T04:41:19;101800.91;;;10.60;65.31
79690;BME280;69156;55.932;-3.238;2023-05-24T04:43:45;101815.49;;;10.61;65.32
79690;BME280;69156;55.932;-3.238;2023-05-24T04:46:12;101819.13;;;10.63;65.50
79690;BME280;69156;55.932;-3.238;2023-05-24T04:48:36;101814.60;;;10.67;65.52
79690;BME280;69156;55.932;-3.238;2023-05-24T04:51:01;101811.10;;;10.42;65.97
79690;BME280;69156;55.932;-3.238;2023-05-24T04:53:26;101804.58;;;10.49;66.19
79690;BME280;69156;55.932;-3.238;2023-05-24T04:55:52;101803.63;;;10.52;65.83
79690;BME280;69156;55.932;-3.238;2023-05-24T04:58:17;101805.96;;;10.66;65.69
79690;BME280;69156;55.932;-3.238;2023-05-24T05:00:43;101799.21;;;10.56;65.75
79690;BME280;69156;55.932;-3.238;2023-05-24T05:03:08;101804.24;;;10.57;65.96
79690;BME280;69156;55.932;-3.238;2023-05-24T05:05:34;101806.49;;;10.69;66.00
79690;BME280;69156;55.932;-3.238;2023-05-24T05:07:59;101802.63;;;10.61;66.00
79690;BME280;69156;55.932;-3.238;2023-05-24T05:10:25;101798.98;;;10.54;66.01
79690;BME280;69156;55.932;-3.238;2023-05-24T05:12:51;101801.60;;;10.66;65.65
79690;BME280;69156;55.932;-3.238;2023-05-24T05:15:16;101808.58;;;10.71;65.49
79690;BME280;69156;55.932;-3.238;2023-05-24T05:17:41;101809.01;;;10.68;65.45
79690;BME280;69156;55.932;-3.238;2023-05-24T05:20:07;101812.14;;;10.65;65.46
79690;BME280;69156;55.932;-3.238;2023-05-24T05:22:32;101808.62;;;10.70;65.15
79690;BME280;69156;55.932;-3.238;2023-05-24T05:24:58;101812.30;;;10.74;64.71
79690;BME280;69156;55.932;-3.238;2023-05-24T05:27:23;101807.70;;;10.80;64.59
79690;BME280;69156;55.932;-3.238;2023-05-24T05:29:49;101810.92;;;10.79;64.24
79690;BME280;69156;55.932;-3.238;2023-05-24T05:32:15;101812.81;;;10.81;64.26
79690;BME280;69156;55.932;-3.238;2023-05-24T05:34:40;101815.64;;;10.97;63.91
79690;BME280;69156;55.932;-3.238;2023-05-24T05:37:06;101823.62;;;11.16;63.56
79690;BME280;69156;55.932;-3.238;2023-05-24T05:39:31;101827.29;;;11.11;63.58
79690;BME280;69156;55.932;-3.238;2023-05-24T05:41:56;101827.23;;;10.98;63.65
79690;BME280;69156;55.932;-3.238;2023-05-24T05:44:21;101830.42;;;11.14;63.58
79690;BME280;69156;55.932;-3.238;2023-05-24T05:46:47;101833.06;;;11.10;63.25
79690;BME280;69156;55.932;-3.238;2023-05-24T05:49:12;101842.10;;;11.11;63.33
79690;BME280;69156;55.932;-3.238;2023-05-24T05:51:38;101833.29;;;11.22;63.23
79690;BME280;69156;55.932;-3.238;2023-05-24T05:54:03;101830.65;;;11.07;63.17
79690;BME280;69156;55.932;-3.238;2023-05-24T05:56:28;101831.31;;;11.12;63.26
79690;BME280;69156;55.932;-3.238;2023-05-24T05:58:53;101828.96;;;10.98;63.30
79690;BME280;69156;55.932;-3.238;2023-05-24T06:01:18;101841.24;;;10.97;63.42
79690;BME280;69156;55.932;-3.238;2023-05-24T06:03:45;101844.02;;;11.04;63.27
79690;BME280;69156;55.932;-3.238;2023-05-24T06:06:10;101848.24;;;11.04;63.57
79690;BME280;69156;55.932;-3.238;2023-05-24T06:08:35;101851.23;;;11.04;63.74
79690;BME280;69156;55.932;-3.238;2023-05-24T06:11:00;101851.39;;;11.14;63.32
79690;BME280;69156;55.932;-3.238;2023-05-24T06:13:25;101859.53;;;11.06;63.16
79690;BME280;69156;55.932;-3.238;2023-05-24T06:15:51;101863.51;;;11.18;63.00
79690;BME280;69156;55.932;-3.238;2023-05-24T06:18:17;101867.85;;;11.28;62.77
79690;BME280;69156;55.932;-3.238;2023-05-24T06:20:42;101868.72;;;11.31;62.49
79690;BME280;69156;55.932;-3.238;2023-05-24T06:23:08;101870.36;;;11.37;62.32
79690;BME280;69156;55.932;-3.238;2023-05-24T06:25:34;101867.77;;;11.33;62.17
79690;BME280;69156;55.932;-3.238;2023-05-24T06:27:58;101867.33;;;11.37;62.08
79690;BME280;69156;55.932;-3.238;2023-05-24T06:30:24;101877.13;;;11.36;61.68
79690;BME280;69156;55.932;-3.238;2023-05-24T06:32:56;101880.21;;;11.36;61.63
79690;BME280;69156;55.932;-3.238;2023-05-24T06:35:15;101885.49;;;11.28;61.67
79690;BME280;69156;55.932;-3.238;2023-05-24T06:37:40;101883.46;;;11.35;61.58
79690;BME280;69156;55.932;-3.238;2023-05-24T06:40:07;101882.49;;;11.20;61.43
79690;BME280;69156;55.932;-3.238;2023-05-24T06:42:32;101878.64;;;11.35;61.37
79690;BME280;69156;55.932;-3.238;2023-05-24T06:44:57;101872.64;;;11.43;61.31
79690;BME280;69156;55.932;-3.238;2023-05-24T06:47:22;101871.60;;;11.34;61.32
79690;BME280;69156;55.932;-3.238;2023-05-24T06:49:48;101869.76;;;11.42;61.06
79690;BME280;69156;55.932;-3.238;2023-05-24T06:52:14;101872.89;;;11.53;60.65
79690;BME280;69156;55.932;-3.238;2023-05-24T06:54:39;101872.92;;;11.74;59.97
79690;BME280;69156;55.932;-3.238;2023-05-24T06:57:05;101869.16;;;11.72;59.47
79690;BME280;69156;55.932;-3.238;2023-05-24T06:59:30;101869.25;;;11.97;58.69
79690;BME280;69156;55.932;-3.238;2023-05-24T07:01:56;101872.02;;;11.94;58.34
79690;BME280;69156;55.932;-3.238;2023-05-24T07:04:23;101873.25;;;11.86;58.34
79690;BME280;69156;55.932;-3.238;2023-05-24T07:06:48;101874.77;;;11.95;58.00
79690;BME280;69156;55.932;-3.238;2023-05-24T07:09:13;101878.35;;;11.98;58.09
79690;BME280;69156;55.932;-3.238;2023-05-24T07:11:39;101880.59;;;12.04;58.00
79690;BME280;69156;55.932;-3.238;2023-05-24T07:14:04;101884.36;;;12.22;57.68
79690;BME280;69156;55.932;-3.238;2023-05-24T07:16:30;101880.16;;;12.24;57.08
79690;BME280;69156;55.932;-3.238;2023-05-24T07:18:56;101882.43;;;12.24;57.28
79690;BME280;69156;55.932;-3.238;2023-05-24T07:21:21;101889.36;;;12.28;57.25
79690;BME280;69156;55.932;-3.238;2023-05-24T07:23:48;101897.60;;;12.40;57.12
79690;BME280;69156;55.932;-3.238;2023-05-24T07:26:13;101900.60;;;12.32;57.31
79690;BME280;69156;55.932;-3.238;2023-05-24T07:28:38;101904.49;;;12.38;56.73
79690;BME280;69156;55.932;-3.238;2023-05-24T07:31:04;101910.51;;;12.31;56.76
79690;BME280;69156;55.932;-3.238;2023-05-24T07:33:28;101909.06;;;12.36;56.50
79690;BME280;69156;55.932;-3.238;2023-05-24T07:35:54;101913.00;;;12.56;56.32
79690;BME280;69156;55.932;-3.238;2023-05-24T07:38:19;101915.60;;;12.61;56.05
79690;BME280;69156;55.932;-3.238;2023-05-24T07:40:45;101913.11;;;12.72;55.41
79690;BME280;69156;55.932;-3.238;2023-05-24T07:43:10;101910.88;;;13.05;54.76
79690;BME280;69156;55.932;-3.238;2023-05-24T07:45:36;101914.60;;;13.13;54.66
79690;BME280;69156;55.932;-3.238;2023-05-24T07:48:02;101912.10;;;13.08;54.26
79690;BME280;69156;55.932;-3.238;2023-05-24T07:50:28;101915.74;;;13.05;54.14
79690;BME280;69156;55.932;-3.238;2023-05-24T07:52:55;101922.30;;;13.01;54.15
79690;BME280;69156;55.932;-3.238;2023-05-24T07:55:20;101918.63;;;13.05;53.92
79690;BME280;69156;55.932;-3.238;2023-05-24T07:57:45;101926.29;;;13.14;53.68
79690;BME280;69156;55.932;-3.238;2023-05-24T08:00:12;101922.49;;;13.22;53.51
79690;BME280;69156;55.932;-3.238;2023-05-24T08:02:37;101924.75;;;13.50;53.08
79690;BME280;69156;55.932;-3.238;2023-05-24T08:05:02;101917.07;;;13.72;52.61
79690;BME280;69156;55.932;-3.238;2023-05-24T08:07:27;101920.73;;;13.84;52.10
79690;BME280;69156;55.932;-3.238;2023-05-24T08:09:52;101918.25;;;13.90;52.24
79690;BME280;69156;55.932;-3.238;2023-05-24T08:12:18;101913.77;;;14.01;51.91
79690;BME280;69156;55.932;-3.238;2023-05-24T08:14:43;101915.87;;;14.20;52.01
79690;BME280;69156;55.932;-3.238;2023-05-24T08:17:09;101915.06;;;14.20;51.79
79690;BME280;69156;55.932;-3.238;2023-05-24T08:19:35;101917.10;;;14.18;51.48
79690;BME280;69156;55.932;-3.238;2023-05-24T08:22:00;101916.86;;;14.33;51.71
79690;BME280;69156;55.932;-3.238;2023-05-24T08:24:26;101914.02;;;14.47;51.28
79690;BME280;69156;55.932;-3.238;2023-05-24T08:26:52;101912.64;;;14.25;52.04
79690;BME280;69156;55.932;-3.238;2023-05-24T08:29:17;101915.67;;;14.57;51.87
79690;BME280;69156;55.932;-3.238;2023-05-24T08:31:42;101923.64;;;14.60;51.32
79690;BME280;69156;55.932;-3.238;2023-05-24T08:34:08;101922.28;;;14.50;51.49
79690;BME280;69156;55.932;-3.238;2023-05-24T08:36:34;101924.01;;;14.69;51.27
79690;BME280;69156;55.932;-3.238;2023-05-24T08:38:59;101916.81;;;14.78;50.81
79690;BME280;69156;55.932;-3.238;2023-05-24T08:41:24;101924.37;;;14.85;51.18
79690;BME280;69156;55.932;-3.238;2023-05-24T08:43:50;101919.10;;;15.00;50.84
79690;BME280;69156;55.932;-3.238;2023-05-24T08:46:16;101911.19;;;15.09;50.68
79690;BME280;69156;55.932;-3.238;2023-05-24T08:48:44;101914.33;;;15.00;50.80
79690;BME280;69156;55.932;-3.238;2023-05-24T08:51:06;101917.65;;;15.40;49.78
79690;BME280;69156;55.932;-3.238;2023-05-24T08:53:31;101920.83;;;15.12;49.99
79690;BME280;69156;55.932;-3.238;2023-05-24T08:55:56;101926.36;;;15.00;50.43
79690;BME280;69156;55.932;-3.238;2023-05-24T08:58:21;101919.66;;;15.44;49.61
79690;BME280;69156;55.932;-3.238;2023-05-24T09:00:47;101922.29;;;15.57;49.96
79690;BME280;69156;55.932;-3.238;2023-05-24T09:03:13;101925.38;;;15.62;49.64
79690;BME280;69156;55.932;-3.238;2023-05-24T09:05:40;101924.08;;;15.77;49.80
79690;BME280;69156;55.932;-3.238;2023-05-24T09:08:04;101920.47;;;15.38;49.91
79690;BME280;69156;55.932;-3.238;2023-05-24T09:10:32;101931.65;;;15.10;50.30
79690;BME280;69156;55.932;-3.238;2023-05-24T09:12:56;101927.76;;;15.24;50.61
79690;BME280;69156;55.932;-3.238;2023-05-24T09:15:21;101929.94;;;15.29;50.84
79690;BME280;69156;55.932;-3.238;2023-05-24T09:17:46;101928.69;;;15.27;50.72
79690;BME280;69156;55.932;-3.238;2023-05-24T09:20:12;101934.99;;;15.55;50.06
79690;BME280;69156;55.932;-3.238;2023-05-24T09:22:40;101931.99;;;15.35;50.66
79690;BME280;69156;55.932;-3.238;2023-05-24T09:25:04;101934.09;;;15.30;50.92
79690;BME280;69156;55.932;-3.238;2023-05-24T09:27:31;101938.27;;;15.22;50.85
79690;BME280;69156;55.932;-3.238;2023-05-24T09:29:55;101941.23;;;15.30;50.99
79690;BME280;69156;55.932;-3.238;2023-05-24T09:32:20;101932.58;;;15.15;50.99
79690;BME280;69156;55.932;-3.238;2023-05-24T09:34:45;101929.83;;;15.53;50.69
79690;BME280;69156;55.932;-3.238;2023-05-24T09:37:11;101927.95;;;15.63;50.55
79690;BME280;69156;55.932;-3.238;2023-05-24T09:39:35;101930.36;;;15.64;50.22
79690;BME280;69156;55.932;-3.238;2023-05-24T09:42:02;101935.60;;;15.71;50.27
79690;BME280;69156;55.932;-3.238;2023-05-24T09:44:26;101933.20;;;15.72;50.10
79690;BME280;69156;55.932;-3.238;2023-05-24T09:46:52;101927.08;;;15.83;49.70
79690;BME280;69156;55.932;-3.238;2023-05-24T09:49:20;101927.28;;;16.09;48.99
79690;BME280;69156;55.932;-3.238;2023-05-24T09:51:45;101925.74;;;16.15;48.96
79690;BME280;69156;55.932;-3.238;2023-05-24T09:54:09;101936.28;;;16.33;48.44
79690;BME280;69156;55.932;-3.238;2023-05-24T09:56:34;101932.44;;;16.43;48.04
79690;BME280;69156;55.932;-3.238;2023-05-24T09:59:05;101926.01;;;16.48;47.67
79690;BME280;69156;55.932;-3.238;2023-05-24T10:01:25;101926.44;;;16.82;47.70
79690;BME280;69156;55.932;-3.238;2023-05-24T10:03:52;101921.89;;;16.68;47.53
79690;BME280;69156;55.932;-3.238;2023-05-24T10:06:17;101926.16;;;16.47;48.03
79690;BME280;69156;55.932;-3.238;2023-05-24T10:08:41;101936.26;;;16.34;47.78
79690;BME280;69156;55.932;-3.238;2023-05-24T10:11:06;101932.03;;;16.55;47.75
79690;BME280;69156;55.932;-3.238;2023-05-24T10:13:32;101945.56;;;16.47;47.26
79690;BME280;69156;55.932;-3.238;2023-05-24T10:15:57;101948.80;;;16.48;47.35
79690;BME280;69156;55.932;-3.238;2023-05-24T10:18:23;101942.22;;;16.45;47.87
79690;BME280;69156;55.932;-3.238;2023-05-24T10:20:50;101943.46;;;16.28;47.71
79690;BME280;69156;55.932;-3.238;2023-05-24T10:23:18;101946.71;;;16.11;48.34
79690;BME280;69156;55.932;-3.238;2023-05-24T10:28:07;101961.08;;;16.27;48.26
79690;BME280;69156;55.932;-3.238;2023-05-24T10:30:32;101959.40;;;16.01;48.54
79690;BME280;69156;55.932;-3.238;2023-05-24T10:32:56;101950.97;;;16.02;49.27
79690;BME280;69156;55.932;-3.238;2023-05-24T10:35:21;101947.54;;;16.17;49.05
79690;BME280;69156;55.932;-3.238;2023-05-24T10:37:46;101958.08;;;16.09;49.40
79690;BME280;69156;55.932;-3.238;2023-05-24T10:40:17;101957.07;;;16.17;48.97
79690;BME280;69156;55.932;-3.238;2023-05-24T10:42:38;101955.65;;;16.07;49.41
79690;BME280;69156;55.932;-3.238;2023-05-24T10:45:29;101949.86;;;16.42;49.06
79690;BME280;69156;55.932;-3.238;2023-05-24T10:47:30;101955.59;;;16.42;48.42
79690;BME280;69156;55.932;-3.238;2023-05-24T10:49:56;101944.28;;;16.70;48.43
79690;BME280;69156;55.932;-3.238;2023-05-24T10:52:19;101944.68;;;16.48;48.74
79690;BME280;69156;55.932;-3.238;2023-05-24T10:55:01;101941.67;;;16.59;48.89
79690;BME280;69156;55.932;-3.238;2023-05-24T10:57:09;101945.16;;;16.90;48.35
79690;BME280;69156;55.932;-3.238;2023-05-24T10:59:36;101945.18;;;16.50;48.85
79690;BME280;69156;55.932;-3.238;2023-05-24T11:02:01;101945.19;;;16.60;48.53
79690;BME280;69156;55.932;-3.238;2023-05-24T11:04:31;101956.95;;;16.92;47.74
79690;BME280;69156;55.932;-3.238;2023-05-24T11:06:56;101958.64;;;16.59;48.50
79690;BME280;69156;55.932;-3.238;2023-05-24T11:09:18;101953.24;;;16.45;49.49
79690;BME280;69156;55.932;-3.238;2023-05-24T11:11:44;101948.70;;;16.48;49.32
79690;BME280;69156;55.932;-3.238;2023-05-24T11:14:09;101956.62;;;16.58;49.52
79690;BME280;69156;55.932;-3.238;2023-05-24T11:16:37;101959.94;;;16.63;49.25
79690;BME280;69156;55.932;-3.238;2023-05-24T11:19:10;101950.28;;;16.86;48.91
79690;BME280;69156;55.932;-3.238;2023-05-24T11:21:26;101946.09;;;16.81;48.55
79690;BME280;69156;55.932;-3.238;2023-05-24T11:23:52;101955.66;;;16.71;49.19
79690;BME280;69156;55.932;-3.238;2023-05-24T11:26:17;101952.24;;;16.60;49.61
79690;BME280;69156;55.932;-3.238;2023-05-24T11:28:42;101950.47;;;16.77;49.54
79690;BME280;69156;55.932;-3.238;2023-05-24T11:31:09;101948.88;;;16.35;49.81
79690;BME280;69156;55.932;-3.238;2023-05-24T11:33:40;101944.04;;;16.57;50.08
79690;BME280;69156;55.932;-3.238;2023-05-24T11:36:00;101948.68;;;16.58;50.06
79690;BME280;69156;55.932;-3.238;2023-05-24T11:38:25;101950.78;;;16.88;49.23
79690;BME280;69156;55.932;-3.238;2023-05-24T11:40:51;101949.35;;;16.90;49.23
79690;BME280;69156;55.932;-3.238;2023-05-24T11:43:18;101951.70;;;16.77;49.44
79690;BME280;69156;55.932;-3.238;2023-05-24T11:45:43;101947.18;;;16.30;50.08
79690;BME280;69156;55.932;-3.238;2023-05-24T11:48:09;101957.70;;;16.62;50.05
79690;BME280;69156;55.932;-3.238;2023-05-24T11:50:38;101960.18;;;16.75;49.94
79690;BME280;69156;55.932;-3.238;2023-05-24T11:53:01;101958.86;;;16.60;49.88
79690;BME280;69156;55.932;-3.238;2023-05-24T11:55:25;101966.03;;;16.81;50.12
79690;BME280;69156;55.932;-3.238;2023-05-24T11:57:56;101963.34;;;16.71;49.71
79690;BME280;69156;55.932;-3.238;2023-05-24T12:00:23;101960.67;;;16.97;49.58
79690;BME280;69156;55.932;-3.238;2023-05-24T12:02:42;101956.61;;;16.63;49.99
79690;BME280;69156;55.932;-3.238;2023-05-24T12:05:09;101959.96;;;16.64;50.17
79690;BME280;69156;55.932;-3.238;2023-05-24T12:07:33;101961.26;;;16.61;50.26
79690;BME280;69156;55.932;-3.238;2023-05-24T12:09:58;101952.48;;;16.72;50.41
79690;BME280;69156;55.932;-3.238;2023-05-24T12:12:23;101949.76;;;16.85;50.23
79690;BME280;69156;55.932;-3.238;2023-05-24T12:14:49;101950.43;;;16.98;50.14
79690;BME280;69156;55.932;-3.238;2023-05-24T12:17:14;101942.70;;;17.34;49.34
79690;BME280;69156;55.932;-3.238;2023-05-24T12:19:42;101939.85;;;17.34;49.31
79690;BME280;69156;55.932;-3.238;2023-05-24T12:22:06;101938.64;;;17.51;49.15
79690;BME280;69156;55.932;-3.238;2023-05-24T12:24:31;101944.42;;;16.95;49.36
79690;BME280;69156;55.932;-3.238;2023-05-24T12:27:00;101943.84;;;17.12;49.95
79690;BME280;69156;55.932;-3.238;2023-05-24T12:29:22;101944.88;;;17.11;49.79
79690;BME280;69156;55.932;-3.238;2023-05-24T12:31:48;101945.35;;;17.69;49.19
79690;BME280;69156;55.932;-3.238;2023-05-24T12:34:15;101939.93;;;17.73;47.90